Time;durP1;ratioP1;P1;durP2;ratioP2;P2;SDS_P1;SDS_P2;PMS_P1;PMS_P2;Temp;Humidity;BMP_temperature;BMP_pressure;BME280_temperature;BME280_humidity;BME280_pressure;Samples;Min_cycle;Max_cycle;Signal;HPM_P1;HPM_P2
2023/10/01 00:00:37;;;;;;;14.73;8.30;;;;;;;;;;4992029;28;20229;-77
2023/10/01 00:03:05;;;;;;;17.37;7.73;;;;;;;;;;4991952;28;20233;-78
2023/10/01 00:05:32;;;;;;;12.77;6.93;;;;;;;;;;4992209;28;20198;-77
2023/10/01 00:08:01;;;;;;;14.73;7.50;;;;;;;;;;4991942;28;20324;-77
2023/10/01 00:10:28;;;;;;;14.80;7.73;;;;;;;;;;4992058;28;20208;-77
2023/10/01 00:12:58;;;;;;;16.17;8.07;;;;;;;;;;4992214;28;20233;-77
2023/10/01 00:15:26;;;;;;;16.17;7.87;;;;;;;;;;4991885;28;20204;-77
2023/10/01 00:17:53;;;;;;;15.80;7.63;;;;;;;;;;4992022;28;20233;-78
2023/10/01 00:20:23;;;;;;;15.80;7.80;;;;;;;;;;4991698;28;20213;-77
2023/10/01 00:22:51;;;;;;;12.07;6.83;;;;;;;;;;4991747;28;20226;-78
2023/10/01 00:25:18;;;;;;;15.03;7.87;;;;;;;;;;4991588;28;20579;-77
2023/10/01 00:27:45;;;;;;;15.77;7.50;;;;;;;;;;4991493;28;20360;-77
2023/10/01 00:30:14;;;;;;;15.40;7.33;;;;;;;;;;4991683;28;20812;-78
2023/10/01 00:32:42;;;;;;;14.43;7.43;;;;;;;;;;4991318;28;20229;-78
2023/10/01 00:35:11;;;;;;;14.10;7.40;;;;;;;;;;4991699;28;20285;-77
2023/10/01 00:37:38;;;;;;;15.97;7.60;;;;;;;;;;4991522;28;20680;-78
2023/10/01 00:40:08;;;;;;;15.47;7.37;;;;;;;;;;4991645;28;20380;-78
2023/10/01 00:42:35;;;;;;;15.43;7.67;;;;;;;;;;4991576;28;20660;-77
2023/10/01 00:45:03;;;;;;;15.23;7.20;;;;;;;;;;4989244;28;20665;-78
2023/10/01 00:47:32;;;;;;;17.27;8.07;;;;;;;;;;4978507;28;20269;-78
2023/10/01 00:50:00;;;;;;;14.30;7.13;;;;;;;;;;4979435;28;20657;-77
2023/10/01 00:52:28;;;;;;;14.20;7.40;;;;;;;;;;4991426;28;20240;-76
2023/10/01 00:54:56;;;;;;;15.97;8.03;;;;;;;;;;4984790;28;20693;-77
2023/10/01 00:57:23;;;;;;;14.97;7.47;;;;;;;;;;4971903;28;20202;-77
2023/10/01 00:59:51;;;;;;;14.67;7.23;;;;;;;;;;4974357;28;20199;-77
2023/10/01 01:02:18;;;;;;;16.70;7.77;;;;;;;;;;4975553;28;20214;-77
2023/10/01 01:05:05;;;;;;;13.80;6.90;;;;;;;;;;4975954;28;20269;-77
2023/10/01 01:07:34;;;;;;;17.03;7.77;;;;;;;;;;4975208;28;20237;-78
2023/10/01 01:10:02;;;;;;;14.90;7.30;;;;;;;;;;4975807;28;20194;-77
2023/10/01 01:12:30;;;;;;;13.27;7.13;;;;;;;;;;4975917;28;20199;-77
2023/10/01 01:14:58;;;;;;;14.53;7.17;;;;;;;;;;4975628;28;20701;-78
2023/10/01 01:17:25;;;;;;;15.77;6.93;;;;;;;;;;4976108;28;20238;-75
2023/10/01 01:19:55;;;;;;;12.13;7.17;;;;;;;;;;4976143;28;20628;-77
2023/10/01 01:22:29;;;;;;;13.03;7.40;;;;;;;;;;4975307;28;20203;-76
2023/10/01 01:25:00;;;;;;;13.70;7.13;;;;;;;;;;4975336;28;20194;-77
2023/10/01 01:27:31;;;;;;;14.93;7.43;;;;;;;;;;4975181;28;20778;-77
2023/10/01 01:29:58;;;;;;;13.77;7.37;;;;;;;;;;4975569;28;20666;-77
2023/10/01 01:32:25;;;;;;;14.70;7.43;;;;;;;;;;4975369;28;20615;-77
2023/10/01 01:34:54;;;;;;;12.57;7.50;;;;;;;;;;4975480;28;20198;-79
2023/10/01 01:37:30;;;;;;;14.27;7.60;;;;;;;;;;4975280;28;20620;-79
2023/10/01 01:39:59;;;;;;;16.10;7.80;;;;;;;;;;4975483;28;20194;-77
2023/10/01 01:42:28;;;;;;;18.93;8.30;;;;;;;;;;4975186;28;20198;-77
2023/10/01 01:47:36;;;;;;;12.73;7.50;;;;;;;;;;4974160;28;20325;-76
2023/10/01 01:50:17;;;;;;;16.33;7.60;;;;;;;;;;4974690;28;20674;-77
2023/10/01 01:52:47;;;;;;;17.93;7.80;;;;;;;;;;4975321;28;20202;-77
2023/10/01 01:55:26;;;;;;;16.23;7.80;;;;;;;;;;4974711;28;20198;-77
2023/10/01 01:58:04;;;;;;;14.23;7.80;;;;;;;;;;4974499;28;20210;-78
2023/10/01 02:00:31;;;;;;;13.90;7.53;;;;;;;;;;4974523;28;20199;-77
2023/10/01 02:03:02;;;;;;;14.97;7.80;;;;;;;;;;4975071;28;20257;-79
2023/10/01 02:05:30;;;;;;;16.07;7.60;;;;;;;;;;4974774;28;20226;-80
2023/10/01 02:08:06;;;;;;;15.83;8.03;;;;;;;;;;4974817;28;20241;-79
2023/10/01 02:10:44;;;;;;;15.07;7.93;;;;;;;;;;4973584;28;20681;-79
2023/10/01 02:13:12;;;;;;;16.07;7.87;;;;;;;;;;4974457;28;20420;-77
2023/10/01 02:15:39;;;;;;;17.63;8.67;;;;;;;;;;4974698;28;20198;-77
2023/10/01 02:18:09;;;;;;;18.63;9.13;;;;;;;;;;4981202;28;20292;-77
2023/10/01 02:20:36;;;;;;;14.87;7.50;;;;;;;;;;4994245;28;20244;-77
2023/10/01 02:23:03;;;;;;;16.53;8.17;;;;;;;;;;4993866;28;20329;-77
2023/10/01 02:25:37;;;;;;;18.73;8.37;;;;;;;;;;4994171;28;20699;-77
2023/10/01 02:28:11;;;;;;;17.50;7.77;;;;;;;;;;4993314;28;20217;-77
2023/10/01 02:30:41;;;;;;;16.73;7.57;;;;;;;;;;4991194;28;20209;-77
2023/10/01 02:33:17;;;;;;;14.50;8.00;;;;;;;;;;4985193;28;20202;-77
2023/10/01 02:35:46;;;;;;;16.27;8.13;;;;;;;;;;4974172;28;20293;-77
2023/10/01 02:40:59;;;;;;;18.30;8.20;;;;;;;;;;4974221;28;20642;-77
2023/10/01 02:43:33;;;;;;;17.63;7.90;;;;;;;;;;4974097;28;20281;-78
2023/10/01 02:46:03;;;;;;;18.67;7.90;;;;;;;;;;4974291;28;20213;-77
2023/10/01 02:48:30;;;;;;;13.93;7.57;;;;;;;;;;4974138;28;20238;-77
2023/10/01 02:51:14;;;;;;;15.60;7.53;;;;;;;;;;4974194;28;20226;-77
2023/10/01 02:53:42;;;;;;;13.83;7.07;;;;;;;;;;4973922;28;20198;-77
2023/10/01 02:56:12;;;;;;;15.93;7.43;;;;;;;;;;4973186;28;20600;-77
2023/10/01 02:58:45;;;;;;;15.17;7.47;;;;;;;;;;4973509;28;20202;-77
2023/10/01 03:01:13;;;;;;;14.93;8.23;;;;;;;;;;4974132;28;20285;-77
2023/10/01 03:03:40;;;;;;;14.03;7.13;;;;;;;;;;4973544;28;20654;-76
2023/10/01 03:06:09;;;;;;;16.50;7.93;;;;;;;;;;4973337;28;20700;-77
2023/10/01 03:11:25;;;;;;;13.47;6.87;;;;;;;;;;4972884;28;20285;-76
2023/10/01 03:13:54;;;;;;;13.43;7.20;;;;;;;;;;4972984;28;20206;-78
2023/10/01 03:16:43;;;;;;;16.73;7.70;;;;;;;;;;4973132;28;20202;-77
2023/10/01 03:19:25;;;;;;;12.60;7.43;;;;;;;;;;4988699;28;20229;-77
2023/10/01 03:24:39;;;;;;;15.73;7.63;;;;;;;;;;4975714;28;20229;-77
2023/10/01 03:27:19;;;;;;;17.93;7.80;;;;;;;;;;4992184;28;20202;-77
2023/10/01 03:29:54;;;;;;;15.47;8.03;;;;;;;;;;4992736;28;20663;-77
2023/10/01 03:32:32;;;;;;;16.23;8.03;;;;;;;;;;4992768;28;20252;-76
2023/10/01 03:35:06;;;;;;;18.50;8.47;;;;;;;;;;4992787;28;20296;-77
2023/10/01 03:37:39;;;;;;;16.13;8.30;;;;;;;;;;4992446;28;20224;-78
2023/10/01 03:40:15;;;;;;;16.57;7.80;;;;;;;;;;4992363;28;20198;-77
2023/10/01 03:42:50;;;;;;;14.20;7.23;;;;;;;;;;4991914;28;20205;-79
2023/10/01 03:45:51;;;;;;;14.97;6.80;;;;;;;;;;4992279;28;20260;-79
2023/10/01 03:48:19;;;;;;;15.30;7.17;;;;;;;;;;4992400;28;20220;-77
2023/10/01 03:50:47;;;;;;;14.47;7.50;;;;;;;;;;4992458;28;20205;-79
2023/10/01 03:53:18;;;;;;;15.60;7.83;;;;;;;;;;4992624;28;20205;-79
2023/10/01 03:55:46;;;;;;;14.33;7.77;;;;;;;;;;4991687;28;20206;-79
2023/10/01 03:58:25;;;;;;;14.47;7.57;;;;;;;;;;4992269;28;20236;-79
2023/10/01 04:00:54;;;;;;;13.73;7.33;;;;;;;;;;4992304;28;20202;-78
2023/10/01 04:03:22;;;;;;;14.23;7.93;;;;;;;;;;4992375;28;20194;-79
2023/10/01 04:05:56;;;;;;;12.80;7.60;;;;;;;;;;4992317;28;20202;-79
2023/10/01 04:08:23;;;;;;;14.93;7.13;;;;;;;;;;4991951;28;20228;-79
2023/10/01 04:10:58;;;;;;;12.93;6.70;;;;;;;;;;4991472;28;20240;-79
2023/10/01 04:13:25;;;;;;;16.93;7.40;;;;;;;;;;4992092;28;20196;-79
2023/10/01 04:15:57;;;;;;;12.93;7.17;;;;;;;;;;4991981;28;20198;-79
2023/10/01 04:18:28;;;;;;;15.50;7.57;;;;;;;;;;4991859;28;20210;-79
2023/10/01 04:23:47;;;;;;;14.87;7.00;;;;;;;;;;4991486;28;20358;-79
2023/10/01 04:26:16;;;;;;;12.93;7.27;;;;;;;;;;4990780;28;20255;-78
2023/10/01 04:28:45;;;;;;;16.20;8.03;;;;;;;;;;4991822;28;20225;-79
2023/10/01 04:31:15;;;;;;;16.37;8.20;;;;;;;;;;4991557;28;20206;-77
2023/10/01 04:33:43;;;;;;;16.53;7.63;;;;;;;;;;4991035;28;20239;-80
2023/10/01 04:36:11;;;;;;;13.20;8.00;;;;;;;;;;4991636;28;20221;-79
2023/10/01 04:38:41;;;;;;;14.87;7.80;;;;;;;;;;4991469;28;20201;-77
2023/10/01 04:41:13;;;;;;;15.47;7.17;;;;;;;;;;4991770;28;20198;-76
2023/10/01 04:43:51;;;;;;;15.67;7.37;;;;;;;;;;4991851;28;20229;-79
2023/10/01 04:46:20;;;;;;;13.37;7.17;;;;;;;;;;4991226;28;20197;-77
2023/10/01 04:48:48;;;;;;;15.20;7.00;;;;;;;;;;4992036;28;20272;-77
2023/10/01 04:51:17;;;;;;;13.67;6.77;;;;;;;;;;4991625;28;20197;-77
2023/10/01 04:53:46;;;;;;;13.40;6.83;;;;;;;;;;4991274;28;20200;-77
2023/10/01 04:56:20;;;;;;;13.27;6.90;;;;;;;;;;4991633;28;20253;-80
2023/10/01 04:58:51;;;;;;;13.50;7.27;;;;;;;;;;4991798;28;20208;-77
2023/10/01 05:01:23;;;;;;;15.40;7.60;;;;;;;;;;4991469;28;20293;-77
2023/10/01 05:03:52;;;;;;;16.07;7.43;;;;;;;;;;4991415;28;20198;-77
2023/10/01 05:06:20;;;;;;;16.90;7.43;;;;;;;;;;4991242;28;20198;-77
2023/10/01 05:08:49;;;;;;;16.87;7.70;;;;;;;;;;4991092;28;20317;-76
2023/10/01 05:11:21;;;;;;;13.33;7.50;;;;;;;;;;4991367;28;20668;-77
2023/10/01 05:13:51;;;;;;;17.23;7.47;;;;;;;;;;4991225;28;20983;-77
2023/10/01 05:16:26;;;;;;;16.57;7.20;;;;;;;;;;4991710;28;20205;-77
2023/10/01 05:19:09;;;;;;;14.53;7.60;;;;;;;;;;4991531;28;20209;-77
2023/10/01 05:21:41;;;;;;;13.50;7.60;;;;;;;;;;4991609;28;20606;-76
2023/10/01 05:24:09;;;;;;;16.47;7.70;;;;;;;;;;4990853;28;20233;-77
2023/10/01 05:26:38;;;;;;;14.00;7.40;;;;;;;;;;4991187;28;20202;-77
2023/10/01 05:29:07;;;;;;;13.77;7.43;;;;;;;;;;4991357;28;20794;-75
2023/10/01 05:31:34;;;;;;;15.27;7.40;;;;;;;;;;4991357;28;20197;-76
2023/10/01 05:34:03;;;;;;;17.73;7.83;;;;;;;;;;4991132;28;20699;-77
2023/10/01 05:36:30;;;;;;;16.73;8.57;;;;;;;;;;4991185;28;20318;-75
2023/10/01 05:39:00;;;;;;;16.50;7.57;;;;;;;;;;4990664;28;20208;-77
2023/10/01 05:41:32;;;;;;;13.53;7.50;;;;;;;;;;4991046;28;20684;-76
2023/10/01 05:44:01;;;;;;;16.00;7.60;;;;;;;;;;4991173;28;20230;-77
2023/10/01 05:46:30;;;;;;;16.63;8.47;;;;;;;;;;4993482;28;20288;-77
2023/10/01 05:49:00;;;;;;;16.03;8.40;;;;;;;;;;4994327;28;20228;-76
2023/10/01 05:51:42;;;;;;;17.13;7.77;;;;;;;;;;4994377;28;20205;-76
2023/10/01 05:54:11;;;;;;;17.27;7.90;;;;;;;;;;4994214;28;20197;-77
2023/10/01 05:56:43;;;;;;;15.77;8.03;;;;;;;;;;4994469;28;20222;-77
2023/10/01 05:59:12;;;;;;;16.40;8.13;;;;;;;;;;4994424;28;20202;-77
2023/10/01 06:01:41;;;;;;;17.97;8.80;;;;;;;;;;4994480;28;20202;-77
2023/10/01 06:04:12;;;;;;;15.17;8.40;;;;;;;;;;4994350;28;20222;-76
2023/10/01 06:06:42;;;;;;;15.33;8.17;;;;;;;;;;4993982;28;20268;-77
2023/10/01 06:09:14;;;;;;;16.43;9.03;;;;;;;;;;4994414;28;20325;-77
2023/10/01 06:11:48;;;;;;;17.93;8.97;;;;;;;;;;4994031;28;20217;-76
2023/10/01 06:17:12;;;;;;;19.23;8.97;;;;;;;;;;5129825;27;21108;-77
2023/10/01 06:19:40;;;;;;;19.10;8.80;;;;;;;;;;5129303;28;20297;-78
2023/10/01 06:22:22;;;;;;;17.30;8.73;;;;;;;;;;5129092;27;20193;-78
2023/10/01 06:24:49;;;;;;;15.37;8.73;;;;;;;;;;5129775;28;20197;-78
2023/10/01 06:27:18;;;;;;;16.07;8.17;;;;;;;;;;5129114;28;20284;-79
2023/10/01 06:29:50;;;;;;;18.33;8.83;;;;;;;;;;5129521;27;20280;-79
2023/10/01 06:32:22;;;;;;;15.17;8.40;;;;;;;;;;5129124;27;20212;-77
2023/10/01 06:34:51;;;;;;;15.57;8.40;;;;;;;;;;5128846;27;20668;-79
2023/10/01 06:37:20;;;;;;;13.90;7.80;;;;;;;;;;5129425;27;20740;-78
2023/10/01 06:39:47;;;;;;;15.53;8.17;;;;;;;;;;5129201;28;20197;-78
2023/10/01 06:42:20;;;;;;;15.07;8.17;;;;;;;;;;5128631;28;20733;-79
2023/10/01 06:44:49;;;;;;;17.50;7.97;;;;;;;;;;5129170;28;20204;-78
2023/10/01 06:47:17;;;;;;;14.80;8.50;;;;;;;;;;5129079;28;20669;-79
2023/10/01 06:49:59;;;;;;;15.17;8.53;;;;;;;;;;5128250;27;20652;-79
2023/10/01 06:52:28;;;;;;;14.50;7.83;;;;;;;;;;5129047;27;20692;-78
2023/10/01 06:54:57;;;;;;;13.90;7.80;;;;;;;;;;5129095;28;20197;-79
2023/10/01 06:57:27;;;;;;;14.47;7.47;;;;;;;;;;5128753;27;20217;-79
2023/10/01 06:59:56;;;;;;;16.13;7.25;;;;;;;;;;5128804;27;20197;-79
2023/10/01 07:02:25;;;;;;;13.25;7.45;;;;;;;;;;5128690;28;20201;-79
2023/10/01 07:04:58;;;;;;;13.77;7.22;;;;;;;;;;5128484;27;20577;-79
2023/10/01 07:07:26;;;;;;;13.70;7.13;;;;;;;;;;5128485;28;20215;-79
2023/10/01 07:09:56;;;;;;;12.63;7.18;;;;;;;;;;5128721;27;20193;-79
2023/10/01 07:12:23;;;;;;;12.43;6.32;;;;;;;;;;5127687;28;20258;-79
2023/10/01 07:14:51;;;;;;;14.63;6.80;;;;;;;;;;5128852;28;20197;-79
2023/10/01 07:17:23;;;;;;;15.02;6.65;;;;;;;;;;5128180;28;20229;-79
2023/10/01 07:19:59;;;;;;;11.55;6.32;;;;;;;;;;5127644;28;20236;-79
2023/10/01 07:22:30;;;;;;;10.32;6.22;;;;;;;;;;5128086;28;20684;-79
2023/10/01 07:24:59;;;;;;;11.23;6.30;;;;;;;;;;5128313;27;20254;-79
2023/10/01 07:27:26;;;;;;;11.73;6.65;;;;;;;;;;5120838;28;20202;-79
2023/10/01 07:29:54;;;;;;;12.07;6.43;;;;;;;;;;5114807;28;20251;-78
2023/10/01 07:32:22;;;;;;;11.88;6.70;;;;;;;;;;5113686;28;20200;-79
2023/10/01 07:34:50;;;;;;;12.90;6.47;;;;;;;;;;5114248;28;20216;-80
2023/10/01 07:37:25;;;;;;;10.77;6.53;;;;;;;;;;5114637;28;20320;-79
2023/10/01 07:39:55;;;;;;;11.93;6.57;;;;;;;;;;5114395;28;20193;-79
2023/10/01 07:42:23;;;;;;;13.60;7.05;;;;;;;;;;5114436;28;20198;-78
2023/10/01 07:44:50;;;;;;;12.25;6.75;;;;;;;;;;5114171;28;20301;-79
2023/10/01 07:47:29;;;;;;;10.65;6.70;;;;;;;;;;5113876;28;20288;-80
2023/10/01 07:49:57;;;;;;;11.05;6.18;;;;;;;;;;5114318;28;20193;-79
2023/10/01 07:52:24;;;;;;;13.02;6.88;;;;;;;;;;5114140;28;20198;-79
2023/10/01 07:54:51;;;;;;;11.60;6.82;;;;;;;;;;5114246;28;20289;-79
2023/10/01 07:57:27;;;;;;;10.50;6.15;;;;;;;;;;5114040;28;20679;-79
2023/10/01 07:59:55;;;;;;;11.50;6.68;;;;;;;;;;5113945;28;20301;-79
2023/10/01 08:02:24;;;;;;;13.02;6.07;;;;;;;;;;5113578;28;20774;-80
2023/10/01 08:04:57;;;;;;;11.02;6.35;;;;;;;;;;5113883;28;20198;-79
2023/10/01 08:07:30;;;;;;;11.13;6.05;;;;;;;;;;5113788;28;20237;-80
2023/10/01 08:09:59;;;;;;;10.55;6.57;;;;;;;;;;5112476;27;20659;-79
2023/10/01 08:13:04;;;;;;;10.60;6.70;;;;;;;;;;5113558;28;20197;-79
2023/10/01 08:18:26;;;;;;;9.50;6.13;;;;;;;;;;5113028;28;20237;-80
2023/10/01 08:20:59;;;;;;;11.70;6.45;;;;;;;;;;5113123;28;20201;-81
2023/10/01 08:23:27;;;;;;;12.65;6.32;;;;;;;;;;5112784;28;20204;-80
2023/10/01 08:25:55;;;;;;;9.60;6.53;;;;;;;;;;5107375;27;20289;-81
2023/10/01 08:28:27;;;;;;;11.77;6.82;;;;;;;;;;5109292;28;20243;-80
2023/10/01 08:31:01;;;;;;;10.68;6.25;;;;;;;;;;5112324;28;20292;-80
2023/10/01 08:33:33;;;;;;;12.27;6.43;;;;;;;;;;5113490;28;20194;-80
2023/10/01 08:36:12;;;;;;;10.25;6.45;;;;;;;;;;5112680;28;20607;-80
2023/10/01 08:38:47;;;;;;;10.75;6.50;;;;;;;;;;5112381;28;20225;-80
2023/10/01 08:41:13;;;;;;;12.77;6.53;;;;;;;;;;5113622;28;20233;-80
2023/10/01 08:43:43;;;;;;;9.38;6.10;;;;;;;;;;5113248;27;20206;-81
2023/10/01 08:46:15;;;;;;;8.38;5.55;;;;;;;;;;5112875;28;20194;-80
2023/10/01 08:48:43;;;;;;;11.10;5.93;;;;;;;;;;5111847;28;20197;-80
2023/10/01 08:51:12;;;;;;;11.80;6.15;;;;;;;;;;5110046;28;20850;-80
2023/10/01 08:53:41;;;;;;;8.98;5.80;;;;;;;;;;5109908;28;20205;-81
2023/10/01 08:56:13;;;;;;;10.88;5.53;;;;;;;;;;5109792;28;20236;-81
2023/10/01 08:58:48;;;;;;;10.18;5.93;;;;;;;;;;5109505;28;20201;-81
2023/10/01 09:01:19;;;;;;;8.88;6.18;;;;;;;;;;4755882;28;10000661;-81
2023/10/01 09:03:55;;;;;;;11.00;6.70;;;;;;;;;;5109938;28;20581;-81
2023/10/01 09:06:26;;;;;;;9.43;6.20;;;;;;;;;;5109547;28;20276;-82
2023/10/01 09:08:55;;;;;;;10.68;6.78;;;;;;;;;;5109827;28;20952;-80
2023/10/01 09:11:35;;;;;;;11.77;6.30;;;;;;;;;;5109306;28;20678;-81
2023/10/01 09:14:19;;;;;;;10.27;6.13;;;;;;;;;;5108719;28;20554;-80
2023/10/01 09:16:49;;;;;;;11.48;6.30;;;;;;;;;;5109124;28;20233;-81
2023/10/01 09:19:34;;;;;;;9.93;5.68;;;;;;;;;;5109077;28;20197;-80
2023/10/01 09:22:09;;;;;;;11.40;6.28;;;;;;;;;;5108928;28;20292;-80
2023/10/01 09:24:39;;;;;;;11.07;6.13;;;;;;;;;;5109169;28;20258;-80
2023/10/01 09:27:19;;;;;;;10.95;6.57;;;;;;;;;;5109096;28;20206;-81
2023/10/01 09:29:57;;;;;;;9.65;6.28;;;;;;;;;;5108960;28;20197;-81
2023/10/01 09:32:50;;;;;;;11.73;6.68;;;;;;;;;;5109031;28;20208;-81
2023/10/01 09:35:30;;;;;;;8.68;6.00;;;;;;;;;;5108965;28;20629;-80
2023/10/01 09:38:10;;;;;;;8.45;5.40;;;;;;;;;;5108252;28;20785;-80
2023/10/01 09:40:38;;;;;;;9.77;5.95;;;;;;;;;;5108351;28;20198;-80
2023/10/01 09:43:17;;;;;;;8.73;5.57;;;;;;;;;;5111758;28;20202;-80
2023/10/01 09:45:47;;;;;;;8.27;5.60;;;;;;;;;;5112048;28;20212;-80
2023/10/01 09:48:29;;;;;;;13.02;6.55;;;;;;;;;;5112068;28;20702;-81
2023/10/01 09:50:59;;;;;;;10.65;6.15;;;;;;;;;;5111619;28;20894;-80
2023/10/01 09:53:31;;;;;;;10.40;6.05;;;;;;;;;;5111556;28;20209;-80
2023/10/01 09:55:59;;;;;;;10.40;6.28;;;;;;;;;;5112144;28;20213;-80
2023/10/01 09:58:28;;;;;;;11.43;6.15;;;;;;;;;;5111216;28;20255;-81
2023/10/01 10:01:01;;;;;;;11.68;6.10;;;;;;;;;;5112238;28;20198;-80
2023/10/01 10:03:36;;;;;;;9.77;5.88;;;;;;;;;;5111571;28;20200;-79
2023/10/01 10:06:06;;;;;;;9.23;5.88;;;;;;;;;;5111659;28;20205;-81
2023/10/01 10:08:34;;;;;;;10.95;6.07;;;;;;;;;;5111901;28;20224;-80
2023/10/01 10:11:02;;;;;;;9.13;5.70;;;;;;;;;;5111370;28;20281;-79
2023/10/01 10:13:45;;;;;;;9.50;6.10;;;;;;;;;;5111046;28;20293;-80
2023/10/01 10:16:30;;;;;;;11.43;6.70;;;;;;;;;;5111239;28;20257;-80
2023/10/01 10:19:08;;;;;;;9.73;5.93;;;;;;;;;;5111724;28;20193;-80
2023/10/01 10:22:05;;;;;;;10.38;6.50;;;;;;;;;;5111787;28;20190;-81
2023/10/01 10:24:34;;;;;;;10.50;6.57;;;;;;;;;;5111036;28;20894;-80
2023/10/01 10:27:04;;;;;;;9.52;5.70;;;;;;;;;;5110745;28;20710;-80
2023/10/01 10:29:47;;;;;;;8.95;5.72;;;;;;;;;;5112041;28;20205;-80
2023/10/01 10:32:15;;;;;;;9.50;5.75;;;;;;;;;;5095332;28;20193;-80
2023/10/01 10:35:15;;;;;;;9.30;5.22;;;;;;;;;;5111021;28;20639;-80
2023/10/01 10:37:48;;;;;;;9.55;5.50;;;;;;;;;;5110853;28;20249;-81
2023/10/01 10:40:23;;;;;;;8.27;5.35;;;;;;;;;;5111149;28;20639;-80
2023/10/01 10:43:16;;;;;;;9.30;6.07;;;;;;;;;;5111377;28;20232;-80
2023/10/01 10:45:57;;;;;;;8.40;5.55;;;;;;;;;;5116835;28;20205;-81
2023/10/01 10:48:45;;;;;;;8.80;5.53;;;;;;;;;;5131927;28;20193;-80
2023/10/01 10:51:18;;;;;;;8.15;4.95;;;;;;;;;;5109768;28;20229;-81
2023/10/01 10:53:46;;;;;;;9.40;5.45;;;;;;;;;;5107429;28;20194;-80
2023/10/01 10:56:14;;;;;;;9.18;5.57;;;;;;;;;;5097440;28;20545;-80
2023/10/01 10:58:46;;;;;;;9.57;4.85;;;;;;;;;;5107182;28;20228;-81
2023/10/01 11:01:18;;;;;;;10.27;5.03;;;;;;;;;;5107727;28;20210;-81
2023/10/01 11:03:49;;;;;;;11.20;5.22;;;;;;;;;;5112963;28;20197;-81
2023/10/01 11:06:20;;;;;;;9.05;4.95;;;;;;;;;;5115469;28;20287;-80
2023/10/01 11:08:51;;;;;;;7.35;5.13;;;;;;;;;;5114668;28;20209;-81
2023/10/01 11:11:25;;;;;;;7.55;5.20;;;;;;;;;;5114709;28;20225;-81
2023/10/01 11:14:00;;;;;;;9.15;5.53;;;;;;;;;;5112653;28;20221;-81
2023/10/01 11:16:33;;;;;;;8.43;5.53;;;;;;;;;;5107558;28;20311;-81
2023/10/01 11:19:12;;;;;;;10.35;5.55;;;;;;;;;;5114921;27;20208;-82
2023/10/01 11:21:59;;;;;;;8.30;5.60;;;;;;;;;;5114063;28;20194;-81
2023/10/01 11:24:29;;;;;;;9.65;5.65;;;;;;;;;;5113802;28;20186;-81
2023/10/01 11:27:25;;;;;;;8.90;5.30;;;;;;;;;;5113355;28;20292;-81
2023/10/01 11:30:12;;;;;;;7.53;4.70;;;;;;;;;;5071283;28;20197;-81
2023/10/01 11:33:01;;;;;;;9.05;4.82;;;;;;;;;;5071336;28;20198;-81
2023/10/01 11:35:34;;;;;;;6.32;4.30;;;;;;;;;;5067432;28;20599;-80
2023/10/01 11:38:04;;;;;;;6.53;4.03;;;;;;;;;;5087676;28;20321;-81
2023/10/01 11:43:23;;;;;;;8.02;4.63;;;;;;;;;;5090930;28;20194;-81
2023/10/01 11:45:50;;;;;;;7.35;4.30;;;;;;;;;;5091925;28;20202;-80
2023/10/01 11:48:20;;;;;;;10.23;4.32;;;;;;;;;;5091592;28;20597;-81
2023/10/01 11:50:50;;;;;;;6.65;4.30;;;;;;;;;;5091090;28;20195;-81
2023/10/01 11:53:28;;;;;;;7.35;4.60;;;;;;;;;;5090866;28;20207;-81
2023/10/01 11:56:01;;;;;;;7.15;4.53;;;;;;;;;;5090910;28;20198;-80
2023/10/01 11:58:28;;;;;;;7.03;4.60;;;;;;;;;;5091659;28;20229;-81
2023/10/01 12:00:59;;;;;;;7.35;4.53;;;;;;;;;;5091112;28;20223;-81
2023/10/01 12:03:26;;;;;;;8.68;4.63;;;;;;;;;;5091257;28;20194;-81
2023/10/01 12:05:56;;;;;;;7.93;4.60;;;;;;;;;;5117993;27;20222;-81
2023/10/01 12:08:35;;;;;;;8.38;4.63;;;;;;;;;;5120778;27;20204;-81
2023/10/01 12:11:26;;;;;;;6.93;4.18;;;;;;;;;;5113848;28;20198;-81
2023/10/01 12:16:32;;;;;;;9.73;6.57;;;;;;;;;;5113805;27;20287;-81
2023/10/01 12:19:22;;;;;;;7.60;4.00;;;;;;;;;;5113848;28;20197;-82
2023/10/01 12:22:04;;;;;;;8.50;4.95;;;;;;;;;;5113411;28;20194;-80
2023/10/01 12:24:39;;;;;;;7.35;4.82;;;;;;;;;;5113575;28;20235;-80
2023/10/01 12:27:07;;;;;;;8.95;4.60;;;;;;;;;;5111513;28;20208;-81
2023/10/01 12:29:42;;;;;;;8.60;4.32;;;;;;;;;;5113182;28;20197;-81
2023/10/01 12:32:10;;;;;;;7.88;4.65;;;;;;;;;;5113897;28;20197;-81
2023/10/01 12:34:37;;;;;;;7.38;4.50;;;;;;;;;;5113464;28;20198;-81
2023/10/01 12:37:31;;;;;;;7.85;4.80;;;;;;;;;;5113275;28;20323;-80
2023/10/01 12:40:13;;;;;;;7.72;4.07;;;;;;;;;;5113317;28;20284;-80
2023/10/01 12:42:41;;;;;;;6.57;4.00;;;;;;;;;;5113212;28;20204;-81
2023/10/01 12:45:19;;;;;;;6.13;3.72;;;;;;;;;;5113996;27;20569;-81
2023/10/01 12:47:50;;;;;;;6.45;4.30;;;;;;;;;;5113132;28;20231;-81
2023/10/01 12:50:27;;;;;;;6.97;4.07;;;;;;;;;;5112974;28;20300;-80
2023/10/01 12:53:19;;;;;;;6.30;4.18;;;;;;;;;;5112483;28;20193;-81
2023/10/01 12:55:51;;;;;;;6.18;4.28;;;;;;;;;;5113139;28;20201;-81
2023/10/01 12:58:19;;;;;;;6.40;4.20;;;;;;;;;;5112397;28;20217;-81
2023/10/01 13:00:46;;;;;;;8.60;4.50;;;;;;;;;;5113923;27;20197;-81
2023/10/01 13:03:16;;;;;;;6.30;4.10;;;;;;;;;;4760790;27;9999764;-81
2023/10/01 13:05:45;;;;;;;6.57;4.45;;;;;;;;;;5103028;28;20200;-82
2023/10/01 13:08:27;;;;;;;6.63;4.00;;;;;;;;;;5108991;28;20198;-82
2023/10/01 13:10:54;;;;;;;5.97;3.80;;;;;;;;;;5109423;28;20222;-79
2023/10/01 13:13:29;;;;;;;6.63;3.97;;;;;;;;;;5108789;28;20237;-82
2023/10/01 13:15:56;;;;;;;5.68;3.50;;;;;;;;;;5107523;28;20614;-81
2023/10/01 13:18:28;;;;;;;5.82;3.85;;;;;;;;;;5117597;27;20336;-82
2023/10/01 13:20:59;;;;;;;7.47;3.50;;;;;;;;;;5129454;27;20277;-82
2023/10/01 13:23:31;;;;;;;4.43;3.63;;;;;;;;;;5096164;28;20221;-82
2023/10/01 13:26:06;;;;;;;5.88;3.42;;;;;;;;;;5105735;28;20236;-79
2023/10/01 13:28:46;;;;;;;6.90;3.30;;;;;;;;;;5108928;28;20202;-81
2023/10/01 13:31:35;;;;;;;5.47;3.40;;;;;;;;;;5107621;28;20212;-81
2023/10/01 13:34:06;;;;;;;6.57;3.42;;;;;;;;;;5107703;28;20209;-81
2023/10/01 13:36:47;;;;;;;6.03;3.20;;;;;;;;;;5097094;28;20204;-81
2023/10/01 13:39:25;;;;;;;5.75;3.38;;;;;;;;;;5100117;28;20207;-82
2023/10/01 14:12:09;;;;;;;5.43;3.22;;;;;;;;;;5044099;28;20762;-81
2023/10/01 14:14:37;;;;;;;4.20;2.83;;;;;;;;;;5044697;28;20208;-80
2023/10/01 14:17:14;;;;;;;6.43;3.00;;;;;;;;;;5042688;28;20297;-80
2023/10/01 14:19:42;;;;;;;6.65;3.13;;;;;;;;;;5042709;28;20286;-81
2023/10/01 14:22:19;;;;;;;4.53;2.67;;;;;;;;;;5047043;28;20634;-81
2023/10/01 14:24:46;;;;;;;4.93;3.17;;;;;;;;;;5048592;28;20249;-80
2023/10/01 14:27:24;;;;;;;5.47;3.00;;;;;;;;;;5073446;28;20270;-80
2023/10/01 14:30:01;;;;;;;4.88;3.03;;;;;;;;;;5091061;28;20738;-81
2023/10/01 14:32:34;;;;;;;3.50;2.60;;;;;;;;;;5092632;28;20289;-80
2023/10/01 14:35:05;;;;;;;4.88;2.90;;;;;;;;;;5092595;28;20677;-81
2023/10/01 14:37:32;;;;;;;4.32;2.83;;;;;;;;;;5096792;28;20221;-80
2023/10/01 14:40:13;;;;;;;5.65;2.97;;;;;;;;;;5114572;28;20224;-81
2023/10/01 14:42:41;;;;;;;4.25;2.90;;;;;;;;;;5110891;28;20333;-81
2023/10/01 14:45:11;;;;;;;4.13;2.90;;;;;;;;;;5114636;28;20236;-81
2023/10/01 14:47:42;;;;;;;5.50;2.92;;;;;;;;;;5115190;28;20241;-81
2023/10/01 14:50:14;;;;;;;4.90;2.90;;;;;;;;;;5115309;28;20232;-81
2023/10/01 14:52:45;;;;;;;5.78;2.80;;;;;;;;;;5114815;28;20194;-81
2023/10/01 14:55:22;;;;;;;5.45;2.95;;;;;;;;;;5115656;28;20197;-81
2023/10/01 14:57:52;;;;;;;5.05;2.88;;;;;;;;;;5115172;28;20233;-81
2023/10/01 15:00:19;;;;;;;4.88;2.70;;;;;;;;;;5104388;28;20225;-81
2023/10/01 15:02:48;;;;;;;5.97;2.83;;;;;;;;;;5108743;28;20276;-81
2023/10/01 15:05:17;;;;;;;4.18;2.80;;;;;;;;;;5115112;28;20202;-81
2023/10/01 15:07:45;;;;;;;5.57;3.00;;;;;;;;;;5115256;28;20280;-81
2023/10/01 15:10:12;;;;;;;6.93;3.40;;;;;;;;;;5114941;28;20197;-81
2023/10/01 15:12:40;;;;;;;4.10;2.38;;;;;;;;;;5114991;28;20212;-81
2023/10/01 15:15:18;;;;;;;9.00;3.00;;;;;;;;;;5114644;28;20260;-81
2023/10/01 15:17:46;;;;;;;5.25;2.78;;;;;;;;;;5122536;27;20222;-81
2023/10/01 15:20:27;;;;;;;5.88;2.70;;;;;;;;;;5114513;28;20202;-81
2023/10/01 15:22:55;;;;;;;4.68;2.72;;;;;;;;;;5115007;28;20193;-80
2023/10/01 15:25:22;;;;;;;4.68;2.67;;;;;;;;;;5114607;28;20666;-80
2023/10/01 15:27:51;;;;;;;5.30;2.53;;;;;;;;;;5114801;28;20197;-81
2023/10/01 15:30:24;;;;;;;5.07;2.90;;;;;;;;;;5114528;28;20208;-81
2023/10/01 15:33:00;;;;;;;4.88;2.60;;;;;;;;;;5114419;28;20229;-81
2023/10/01 15:35:27;;;;;;;5.25;2.83;;;;;;;;;;5114948;27;20282;-81
2023/10/01 15:37:54;;;;;;;6.40;2.80;;;;;;;;;;5114256;28;20714;-81
2023/10/01 15:40:24;;;;;;;4.65;2.75;;;;;;;;;;5114101;28;20298;-81
2023/10/01 15:42:54;;;;;;;4.35;2.53;;;;;;;;;;5102798;28;20291;-81
2023/10/01 15:45:24;;;;;;;5.25;2.92;;;;;;;;;;5096852;28;20431;-82
2023/10/01 15:47:54;;;;;;;4.55;2.55;;;;;;;;;;5112715;27;20193;-83
2023/10/01 15:50:25;;;;;;;4.18;2.78;;;;;;;;;;5114627;27;20266;-81
2023/10/01 15:52:55;;;;;;;4.53;2.42;;;;;;;;;;5135114;27;20201;-83
2023/10/01 15:55:31;;;;;;;4.88;2.65;;;;;;;;;;5134640;27;20613;-84
2023/10/01 15:58:02;;;;;;;5.43;2.50;;;;;;;;;;5114136;27;20716;-81